Time;durP1;ratioP1;P1;durP2;ratioP2;P2;SDS_P1;SDS_P2;PMS_P1;PMS_P2;Temp;Humidity;BMP_temperature;BMP_pressure;BME280_temperature;BME280_humidity;BME280_pressure;Samples;Min_cycle;Max_cycle;Signal;HPM_P1;HPM_P2
2023/03/22 00:00:47;;;;;;;2.38;1.45;;;10.60;99.90;;;10.71;100.00;100597.69;5106266;28;20049;-70
2023/03/22 00:03:19;;;;;;;3.88;2.45;;;10.60;99.90;;;10.70;100.00;100593.31;5106412;28;20035;-69
2023/03/22 00:05:58;;;;;;;5.82;2.30;;;10.70;99.90;;;10.70;100.00;100595.94;5121596;28;20054;-69
2023/03/22 00:08:30;;;;;;;3.88;2.10;;;10.60;99.90;;;10.72;100.00;100589.03;5106361;28;20040;-70
2023/03/22 00:11:06;;;;;;;2.33;1.60;;;10.70;99.90;;;10.74;100.00;100587.34;5121971;28;20524;-69
2023/03/22 00:13:41;;;;;;;4.18;1.88;;;10.70;99.90;;;10.77;100.00;100583.13;5106262;28;20055;-69
2023/03/22 00:16:14;;;;;;;3.05;1.73;;;10.70;99.90;;;10.79;100.00;100575.34;5115801;28;20069;-69
2023/03/22 00:18:46;;;;;;;3.35;1.65;;;10.70;99.90;;;10.82;100.00;100585.84;5117897;28;20039;-69
2023/03/22 00:21:19;;;;;;;3.75;1.67;;;10.70;99.90;;;10.83;100.00;100572.00;5128626;28;20087;-69
2023/03/22 00:23:51;;;;;;;3.00;2.17;;;10.80;99.90;;;10.85;100.00;100571.19;5105786;28;20501;-69
2023/03/22 00:26:23;;;;;;;3.13;1.80;;;10.80;99.90;;;10.88;100.00;100565.16;5105697;28;20052;-69
2023/03/22 00:28:57;;;;;;;2.58;1.55;;;10.80;99.90;;;10.90;100.00;100560.03;5120767;28;20051;-69
2023/03/22 00:31:29;;;;;;;3.70;1.80;;;10.80;99.90;;;10.91;100.00;100564.41;5118221;28;20078;-70
2023/03/22 00:34:01;;;;;;;6.88;2.63;;;10.80;99.90;;;10.92;100.00;100561.81;5123833;28;20050;-69
2023/03/22 00:36:33;;;;;;;5.35;2.47;;;10.90;99.90;;;10.93;100.00;100558.38;5120273;28;20072;-70
2023/03/22 00:39:06;;;;;;;5.40;2.50;;;10.80;99.90;;;10.95;100.00;100561.91;5112324;28;20050;-70
2023/03/22 00:41:39;;;;;;;5.97;2.88;;;10.90;99.90;;;10.97;100.00;100549.81;5112132;28;20048;-70
2023/03/22 00:44:13;;;;;;;7.22;3.15;;;10.90;99.90;;;10.99;100.00;100544.63;5130695;28;20500;-70
2023/03/22 00:46:47;;;;;;;5.95;2.67;;;10.90;99.90;;;11.00;100.00;100539.47;5115998;28;20058;-70
2023/03/22 00:49:19;;;;;;;5.45;2.45;;;11.00;99.90;;;11.01;100.00;100537.72;5105200;28;20048;-70
2023/03/22 00:51:53;;;;;;;7.50;3.05;;;11.00;99.90;;;11.00;100.00;100542.06;5105382;28;20371;-70
2023/03/22 00:54:25;;;;;;;6.28;2.42;;;11.00;99.90;;;11.00;100.00;100534.25;5108825;28;20505;-70
2023/03/22 00:56:57;;;;;;;5.80;3.00;;;11.00;99.90;;;11.01;100.00;100529.91;5106968;28;20056;-70
2023/03/22 00:59:31;;;;;;;6.53;3.00;;;11.00;99.90;;;11.01;100.00;100528.19;5104064;28;20047;-70
2023/03/22 01:02:05;;;;;;;6.05;3.53;;;11.00;99.90;;;11.00;100.00;100523.81;5117992;28;20484;-70
2023/03/22 01:04:38;;;;;;;5.80;2.83;;;11.00;99.90;;;11.00;100.00;100520.31;5111314;28;20448;-69
2023/03/22 01:07:16;;;;;;;5.57;2.40;;;11.00;99.90;;;10.99;100.00;100509.00;5108783;28;20472;-70
2023/03/22 01:09:49;;;;;;;5.80;2.47;;;11.00;99.90;;;11.00;100.00;100507.28;5115563;28;20528;-69
2023/03/22 01:12:21;;;;;;;5.47;2.80;;;11.00;99.90;;;10.98;100.00;100508.97;5119979;28;20554;-69
2023/03/22 01:14:54;;;;;;;5.70;2.90;;;10.90;99.90;;;10.98;100.00;100501.13;5103471;28;20048;-69
2023/03/22 01:17:27;;;;;;;7.32;3.10;;;10.90;99.90;;;10.97;100.00;100499.38;5113089;28;20500;-69
2023/03/22 01:19:59;;;;;;;4.85;2.50;;;10.90;99.90;;;10.98;100.00;100498.53;5119362;28;20122;-70
2023/03/22 01:22:32;;;;;;;6.15;2.83;;;11.00;99.90;;;10.99;100.00;100498.56;5119580;28;20114;-70
2023/03/22 01:25:06;;;;;;;4.70;2.55;;;11.00;99.90;;;10.98;100.00;100501.13;5118900;28;20055;-70
2023/03/22 01:27:38;;;;;;;7.50;3.40;;;10.90;99.90;;;10.96;100.00;100501.09;5104536;28;20126;-70
2023/03/22 01:30:14;;;;;;;5.93;2.72;;;10.90;99.90;;;10.97;100.00;100502.88;5104870;28;20046;-69
2023/03/22 01:32:46;;;;;;;7.80;3.28;;;11.00;99.90;;;10.97;100.00;100502.00;5112617;28;20075;-70
2023/03/22 01:35:19;;;;;;;6.10;2.85;;;11.00;99.90;;;10.96;100.00;100500.22;5118365;28;20114;-70
2023/03/22 01:37:51;;;;;;;5.25;2.58;;;10.90;99.90;;;10.96;100.00;100501.09;5111434;28;20054;-69
2023/03/22 01:40:26;;;;;;;7.85;3.33;;;10.90;99.90;;;10.95;100.00;100495.81;5181134;23;20498;-67
2023/03/22 01:42:58;;;;;;;4.18;2.33;;;10.90;99.90;;;10.96;100.00;100495.00;5142681;28;20055;-67
2023/03/22 01:45:39;;;;;;;6.38;2.60;;;10.90;99.90;;;10.96;100.00;100493.28;5153308;28;20043;-67
2023/03/22 01:48:27;;;;;;;5.68;2.60;;;10.90;99.90;;;10.97;100.00;100494.16;5154759;28;20142;-68
2023/03/22 01:51:06;;;;;;;6.07;3.38;;;10.90;99.90;;;10.95;100.00;100491.50;5123407;28;20066;-67
2023/03/22 01:53:52;;;;;;;6.75;3.20;;;10.90;99.90;;;10.94;100.00;100491.44;5122618;28;20051;-68
2023/03/22 01:56:31;;;;;;;8.18;3.60;;;10.90;99.90;;;10.91;100.00;100481.84;5123057;28;20057;-67
2023/03/22 01:59:05;;;;;;;7.80;3.40;;;10.90;99.90;;;10.93;100.00;100480.13;5123906;28;20057;-68
2023/03/22 02:01:58;;;;;;;8.10;2.90;;;10.90;99.90;;;10.93;100.00;100474.94;5149866;28;20431;-67
2023/03/22 02:04:35;;;;;;;6.93;3.08;;;10.90;99.90;;;10.94;100.00;100471.47;5122448;28;20047;-67
2023/03/22 02:07:15;;;;;;;6.15;2.65;;;10.90;99.90;;;10.94;100.00;100475.81;5121945;28;20548;-68
2023/03/22 02:09:49;;;;;;;6.32;2.58;;;10.90;99.90;;;10.95;100.00;100475.84;5122581;28;20043;-67
2023/03/22 02:12:37;;;;;;;5.72;2.60;;;10.90;99.90;;;10.94;100.00;100473.19;5122847;28;20043;-67
2023/03/22 02:15:24;;;;;;;;;;;10.90;99.90;;;10.93;100.00;100468.81;5122266;28;20050;-67
2023/03/22 02:18:39;;;;;;;7.38;3.40;;;10.90;99.90;;;10.90;100.00;100464.44;5123689;28;20394;-68
2023/03/22 02:21:56;;;;;;;6.65;3.30;;;10.90;99.90;;;10.92;100.00;100464.47;5122483;28;20083;-68
2023/03/22 02:25:14;;;;;;;6.38;3.03;;;10.90;99.90;;;10.92;100.00;100452.31;5131400;28;20050;-67
2023/03/22 02:28:18;;;;;;;7.45;3.05;;;10.90;99.90;;;10.93;100.00;100446.25;5041962;29;20056;-68
2023/03/22 02:31:17;;;;;;;5.47;2.85;;;10.90;99.90;;;10.95;100.00;100447.16;5130415;28;20049;-69
2023/03/22 02:34:07;;;;;;;5.93;3.00;;;10.90;99.90;;;10.96;100.00;100445.47;5114290;28;20064;-68
2023/03/22 02:37:32;;;;;;;5.82;2.72;;;10.90;99.90;;;10.93;100.00;100443.63;5116417;28;20047;-68
2023/03/22 02:40:14;;;;;;;5.38;3.30;;;10.90;99.90;;;10.91;100.00;100445.31;5102055;28;20419;-68
2023/03/22 02:42:56;;;;;;;6.55;3.45;;;10.90;99.90;;;10.90;100.00;100442.69;5145726;28;20450;-67
2023/03/22 02:45:34;;;;;;;6.07;3.10;;;10.90;99.90;;;10.88;100.00;100442.59;5116070;28;20058;-67
2023/03/22 02:48:12;;;;;;;6.10;3.10;;;10.90;99.90;;;10.86;100.00;100436.47;5126279;28;20073;-69
2023/03/22 02:50:52;;;;;;;8.15;3.13;;;10.80;99.90;;;10.83;100.00;100436.41;5127019;28;20043;-67
2023/03/22 02:53:29;;;;;;;6.85;2.95;;;10.80;99.90;;;10.82;100.00;100432.00;5127725;28;20047;-67
2023/03/22 02:56:10;;;;;;;7.30;3.13;;;10.80;99.90;;;10.79;100.00;100434.53;5127088;28;20040;-67
2023/03/22 02:58:46;;;;;;;8.20;3.20;;;10.80;99.90;;;10.76;100.00;100422.31;5127638;28;20043;-67
2023/03/22 03:01:23;;;;;;;7.25;3.35;;;10.80;99.90;;;10.72;100.00;100417.84;5126204;28;20046;-67
2023/03/22 03:03:59;;;;;;;7.80;3.40;;;10.70;99.90;;;10.71;100.00;100420.41;5127269;28;20047;-67
2023/03/22 03:06:37;;;;;;;8.15;3.75;;;10.70;99.90;;;10.69;100.00;100419.47;5125760;28;20059;-67
2023/03/22 03:09:12;;;;;;;8.40;3.80;;;10.70;99.90;;;10.69;100.00;100414.25;5127349;28;20053;-67
2023/03/22 03:11:49;;;;;;;9.02;3.90;;;10.70;99.90;;;10.71;100.00;100415.19;5127384;28;20122;-67
2023/03/22 03:14:24;;;;;;;7.28;3.38;;;10.70;99.90;;;10.69;100.00;100407.31;5125925;28;20047;-67
2023/03/22 03:17:13;;;;;;;6.53;3.22;;;10.70;99.90;;;10.69;100.00;100406.44;5125595;28;20050;-67
2023/03/22 03:19:50;;;;;;;;;;;10.70;99.90;;;10.69;100.00;100409.03;5126134;28;20035;-68
2023/03/22 03:22:38;;;;;;;8.77;4.00;;;10.70;99.90;;;10.68;100.00;100405.56;5133383;28;20445;-66
2023/03/22 03:25:18;;;;;;;11.25;4.35;;;10.70;99.90;;;10.67;100.00;100398.59;5125624;28;20518;-68
2023/03/22 03:28:02;;;;;;;11.43;5.00;;;10.70;99.90;;;10.63;100.00;100390.63;5126897;28;20151;-68
2023/03/22 03:30:40;;;;;;;7.47;3.75;;;10.70;99.90;;;10.62;100.00;100394.06;5127333;28;20523;-67
2023/03/22 03:33:16;;;;;;;6.35;3.22;;;10.70;99.90;;;10.60;100.00;100389.72;5125302;28;20105;-70
2023/03/22 03:35:54;;;;;;;6.43;3.15;;;10.60;99.90;;;10.60;100.00;100396.66;5125305;28;20099;-69
2023/03/22 03:38:30;;;;;;;7.20;3.05;;;10.60;99.90;;;10.59;100.00;100394.88;5125647;28;20043;-67
2023/03/22 03:41:09;;;;;;;7.13;3.58;;;10.60;99.90;;;10.57;100.00;100394.84;5125149;28;20105;-67
2023/03/22 03:43:43;;;;;;;7.93;3.42;;;10.60;99.90;;;10.55;100.00;100395.63;5126588;28;20042;-68
2023/03/22 03:46:16;;;;;;;7.80;3.50;;;10.60;99.90;;;10.52;100.00;100393.81;5124818;28;20050;-67
2023/03/22 03:48:50;;;;;;;9.43;3.53;;;10.60;99.90;;;10.50;100.00;100392.03;5124982;28;20061;-68
2023/03/22 03:51:23;;;;;;;6.20;2.70;;;10.50;99.90;;;10.47;100.00;100398.03;5126710;28;20054;-67
2023/03/22 03:53:55;;;;;;;8.38;3.40;;;10.50;99.90;;;10.46;100.00;100398.84;5126561;28;20512;-68
2023/03/22 03:56:28;;;;;;;7.43;3.60;;;10.50;99.90;;;10.44;100.00;100390.13;5118111;28;20035;-66
2023/03/22 03:59:03;;;;;;;8.70;3.72;;;10.50;99.90;;;10.43;100.00;100398.78;5124408;28;20059;-68
2023/03/22 04:01:36;;;;;;;8.27;3.40;;;10.50;99.90;;;10.39;100.00;100396.91;5125065;28;20165;-67
2023/03/22 04:04:24;;;;;;;8.68;3.42;;;10.40;99.90;;;10.38;100.00;100397.75;5125604;28;20058;-67
2023/03/22 04:07:03;;;;;;;7.55;3.22;;;10.40;99.90;;;10.37;100.00;100408.13;5140929;28;20035;-69
2023/03/22 04:09:39;;;;;;;5.10;2.75;;;10.40;99.90;;;10.35;100.00;100410.69;5125304;28;20078;-67
2023/03/22 04:12:18;;;;;;;7.25;3.65;;;10.40;99.90;;;10.36;100.00;100407.22;5133255;28;20043;-68
2023/03/22 04:15:13;;;;;;;8.40;4.18;;;10.40;99.90;;;10.36;100.00;100404.63;5126600;28;20066;-68
2023/03/22 04:17:49;;;;;;;8.98;4.10;;;10.40;99.90;;;10.37;100.00;100409.03;5124563;28;20047;-68
2023/03/22 04:20:22;;;;;;;9.05;4.18;;;10.40;99.90;;;10.36;100.00;100402.03;5127779;28;20047;-67
2023/03/22 04:22:56;;;;;;;9.38;4.43;;;10.40;99.90;;;10.35;100.00;100395.06;5128785;28;20070;-67
2023/03/22 04:25:29;;;;;;;9.98;4.80;;;10.40;99.90;;;10.36;100.00;100406.34;5128481;28;20043;-67
2023/03/22 04:28:08;;;;;;;8.65;4.03;;;10.40;99.90;;;10.36;100.00;100402.03;5127262;28;20500;-68
2023/03/22 04:30:44;;;;;;;9.30;4.45;;;10.40;99.90;;;10.36;100.00;100401.13;5140694;28;20054;-68
2023/03/22 04:33:38;;;;;;;8.68;4.25;;;10.40;99.90;;;10.37;100.00;100408.13;5125869;28;20094;-67
2023/03/22 04:36:18;;;;;;;7.05;3.60;;;10.40;99.90;;;10.35;100.00;100408.06;5140119;28;20054;-68
2023/03/22 04:39:11;;;;;;;7.95;3.70;;;10.40;99.90;;;10.33;100.00;100407.16;5124297;28;20054;-68
2023/03/22 04:41:48;;;;;;;7.70;3.92;;;10.40;99.90;;;10.31;100.00;100409.72;5124252;28;20070;-68
2023/03/22 04:44:21;;;;;;;8.02;3.90;;;10.40;99.90;;;10.29;100.00;100406.16;5124054;28;20094;-67
2023/03/22 04:46:57;;;;;;;11.27;5.00;;;10.30;99.90;;;10.25;100.00;100406.94;5123775;28;20043;-67
2023/03/22 04:49:30;;;;;;;8.63;4.53;;;10.30;99.90;;;10.23;100.00;100400.78;5123614;28;20039;-68
2023/03/22 04:52:02;;;;;;;9.27;4.18;;;10.30;99.90;;;10.19;100.00;100392.81;5124236;28;20551;-67
2023/03/22 04:54:41;;;;;;;7.30;4.15;;;10.20;99.90;;;10.16;100.00;100387.50;5123751;28;20501;-68
2023/03/22 04:57:14;;;;;;;8.60;4.82;;;10.20;99.90;;;10.11;100.00;100389.97;5125025;28;20070;-67
2023/03/22 04:59:51;;;;;;;8.45;4.60;;;10.10;99.90;;;10.06;100.00;100387.22;5123870;28;20508;-67
2023/03/22 05:02:25;;;;;;;11.48;6.00;;;10.10;99.90;;;10.00;100.00;100381.84;5124180;28;20349;-67
2023/03/22 05:04:58;;;;;;;10.57;5.50;;;10.10;99.90;;;9.97;100.00;100375.63;5123684;28;20047;-67
2023/03/22 05:07:39;;;;;;;11.52;5.85;;;10.00;99.90;;;9.93;100.00;100369.47;5116698;28;20531;-67
2023/03/22 05:10:11;;;;;;;9.18;5.03;;;10.00;99.90;;;9.93;100.00;100386.81;5123552;28;20423;-67
2023/03/22 05:12:45;;;;;;;9.18;5.05;;;10.00;99.90;;;9.90;100.00;100377.16;5123663;28;20075;-69
2023/03/22 05:15:33;;;;;;;10.57;4.88;;;10.00;99.90;;;9.92;100.00;100380.72;5123281;28;20416;-66
2023/03/22 05:18:09;;;;;;;7.50;4.00;;;10.00;99.90;;;9.95;100.00;100373.00;5123157;28;20043;-68
2023/03/22 05:20:43;;;;;;;7.43;3.85;;;10.00;99.90;;;10.00;100.00;100380.94;5123185;28;20039;-66
2023/03/22 05:23:19;;;;;;;8.18;3.97;;;10.00;99.90;;;10.05;100.00;100385.47;5123577;28;20138;-67
2023/03/22 05:25:57;;;;;;;7.13;4.43;;;10.10;99.90;;;10.10;100.00;100367.34;5139104;28;20500;-67
2023/03/22 05:28:30;;;;;;;7.25;4.25;;;10.10;99.90;;;10.10;100.00;100372.56;5122640;28;20051;-68
2023/03/22 05:31:20;;;;;;;8.93;3.78;;;10.10;99.90;;;10.11;100.00;100361.34;5123585;28;20142;-70
2023/03/22 05:34:04;;;;;;;9.32;4.18;;;10.20;99.90;;;10.11;100.00;100368.28;5122982;28;20518;-68
2023/03/22 05:36:39;;;;;;;6.45;3.22;;;10.10;99.90;;;10.12;100.00;100364.81;5122801;28;20053;-68
2023/03/22 05:39:30;;;;;;;8.35;3.45;;;10.10;99.90;;;10.14;100.00;100365.75;5124335;28;20046;-68
2023/03/22 05:42:04;;;;;;;7.82;3.55;;;10.20;99.90;;;10.16;100.00;100372.75;5123262;28;20047;-67
2023/03/22 05:44:39;;;;;;;8.43;3.55;;;10.20;99.90;;;10.16;100.00;100364.06;5123056;28;20054;-67
2023/03/22 05:47:16;;;;;;;7.68;4.22;;;10.20;99.90;;;10.17;100.00;100368.41;5130521;28;20130;-67
2023/03/22 05:50:16;;;;;;;8.27;3.42;;;10.20;99.90;;;10.19;100.00;100369.38;5123035;28;20465;-69
2023/03/22 05:52:50;;;;;;;9.75;4.18;;;10.20;99.90;;;10.22;100.00;100382.47;5123097;28;20102;-68
2023/03/22 05:55:45;;;;;;;7.40;3.50;;;10.30;99.90;;;10.25;100.00;100382.63;5123849;28;20047;-68
2023/03/22 05:58:18;;;;;;;7.63;3.22;;;10.30;99.90;;;10.32;100.00;100389.75;5122890;28;20157;-68
2023/03/22 06:00:51;;;;;;;5.97;3.20;;;10.30;99.90;;;10.39;100.00;100380.41;5122704;28;20558;-68
2023/03/22 06:03:26;;;;;;;6.78;3.30;;;10.40;99.90;;;10.44;100.00;100387.53;5124176;28;20051;-67
2023/03/22 06:06:10;;;;;;;7.13;3.10;;;10.40;99.90;;;10.48;100.00;100391.97;5122617;28;20047;-68
2023/03/22 06:08:51;;;;;;;5.13;3.15;;;10.50;99.90;;;10.51;100.00;100386.84;5122664;28;20559;-68
2023/03/22 06:11:24;;;;;;;7.78;2.92;;;10.50;99.90;;;10.56;100.00;100390.47;5125564;28;20526;-68
2023/03/22 06:13:58;;;;;;;6.50;3.53;;;10.60;99.90;;;10.59;100.00;100390.56;5127333;28;20054;-67
2023/03/22 06:16:38;;;;;;;9.07;4.53;;;10.60;99.90;;;10.64;100.00;100392.41;5122155;28;20066;-67
2023/03/22 06:19:10;;;;;;;8.52;4.60;;;10.60;99.90;;;10.66;100.00;100385.50;5122061;28;20039;-67
2023/03/22 06:21:44;;;;;;;9.05;3.63;;;10.60;99.90;;;10.76;100.00;100383.22;5128115;28;20055;-68
2023/03/22 06:24:20;;;;;;;8.00;3.60;;;10.70;99.90;;;10.87;100.00;100386.09;5128615;28;20050;-68
2023/03/22 06:26:52;;;;;;;6.65;2.70;;;10.80;99.90;;;10.97;100.00;100377.69;5128735;28;20547;-68
2023/03/22 06:29:24;;;;;;;6.10;3.25;;;10.90;99.90;;;11.09;100.00;100372.78;5129044;28;20055;-68
2023/03/22 06:32:00;;;;;;;6.00;2.67;;;11.00;99.90;;;11.33;100.00;100387.28;5128791;28;20043;-67
2023/03/22 06:34:33;;;;;;;7.53;3.10;;;11.20;99.90;;;11.45;100.00;100382.38;5128696;28;20047;-68
2023/03/22 06:37:07;;;;;;;6.43;3.00;;;11.30;99.90;;;11.45;100.00;100382.38;5128525;28;20045;-67
2023/03/22 06:39:45;;;;;;;7.18;3.50;;;11.30;99.90;;;11.42;100.00;100395.38;5129500;28;20042;-67
2023/03/22 06:42:17;;;;;;;8.95;3.35;;;11.40;99.90;;;11.35;100.00;100396.94;5129296;28;20047;-68
2023/03/22 06:44:53;;;;;;;7.28;3.22;;;11.30;99.90;;;11.32;100.00;100390.75;5128816;28;20054;-68
2023/03/22 06:47:35;;;;;;;7.25;3.17;;;11.30;99.90;;;11.30;100.00;100400.28;5128568;28;20047;-68
2023/03/22 06:50:08;;;;;;;8.00;3.35;;;11.20;99.90;;;11.27;100.00;100392.34;5137953;28;20051;-67
2023/03/22 06:53:02;;;;;;;7.38;3.08;;;11.20;99.90;;;11.27;100.00;100390.63;5128424;28;20039;-64
2023/03/22 06:55:36;;;;;;;7.22;3.03;;;11.20;99.90;;;11.49;100.00;100392.06;5128649;28;20105;-62
2023/03/22 06:58:17;;;;;;;6.50;2.70;;;11.50;99.90;;;11.62;100.00;100394.13;5128724;28;20047;-62
2023/03/22 07:00:50;;;;;;;6.50;3.05;;;11.60;99.90;;;11.67;100.00;100402.97;5129845;28;20043;-62
2023/03/22 07:03:27;;;;;;;7.03;3.05;;;11.60;99.90;;;11.68;100.00;100396.88;5128640;28;20051;-57
2023/03/22 07:06:05;;;;;;;7.50;2.72;;;11.60;99.90;;;11.71;100.00;100393.44;5135864;28;20039;-56
2023/03/22 07:08:43;;;;;;;5.82;2.70;;;11.70;99.90;;;11.80;100.00;100392.78;5120812;28;20047;-59
2023/03/22 07:11:20;;;;;;;5.25;2.60;;;11.70;99.90;;;11.87;100.00;100381.69;5128346;28;20047;-54
2023/03/22 07:14:00;;;;;;;5.93;2.22;;;11.80;99.90;;;11.95;100.00;100380.13;5128330;28;20047;-56
2023/03/22 07:16:42;;;;;;;7.90;2.90;;;11.80;99.90;;;11.99;100.00;100376.72;5135815;28;20495;-58
2023/03/22 07:19:16;;;;;;;6.75;2.88;;;11.90;99.90;;;12.00;100.00;100381.13;5129089;28;20043;-55
2023/03/22 07:21:48;;;;;;;6.05;2.25;;;11.90;99.90;;;12.01;100.00;100375.03;5128281;28;20067;-55
2023/03/22 07:24:23;;;;;;;6.57;2.75;;;11.90;99.90;;;12.08;100.00;100376.06;5127821;28;20055;-58
2023/03/22 07:26:55;;;;;;;7.72;2.45;;;11.90;99.90;;;12.17;100.00;100379.75;5127874;28;20039;-55
2023/03/22 07:29:32;;;;;;;4.97;2.35;;;12.00;99.90;;;12.37;100.00;100369.72;5135720;28;20157;-56
2023/03/22 07:32:05;;;;;;;5.05;2.30;;;12.20;99.90;;;12.62;100.00;100371.09;5125577;28;20073;-55
2023/03/22 07:34:53;;;;;;;3.50;2.35;;;12.40;99.90;;;13.44;100.00;100371.75;5125586;28;20503;-55
2023/03/22 07:37:26;;;;;;;7.43;2.78;;;12.80;99.90;;;14.54;100.00;100367.19;5136543;28;20047;-57
2023/03/22 07:39:59;;;;;;;6.80;2.08;;;13.60;99.90;;;15.55;100.00;100350.72;5232615;23;20436;-59
2023/03/22 07:42:35;;;;;;;4.65;1.88;;;14.50;99.90;;;15.63;98.15;100351.66;5131622;28;20043;-59
2023/03/22 07:45:26;;;;;;;3.33;1.60;;;14.80;99.90;;;15.20;97.51;100350.44;5133801;28;20051;-59
2023/03/22 07:48:17;;;;;;;5.03;1.85;;;14.70;99.90;;;14.80;97.91;100352.66;5126314;28;20094;-59
2023/03/22 07:50:57;;;;;;;4.68;1.73;;;14.50;99.90;;;14.52;98.85;100345.34;5124539;28;20053;-58
2023/03/22 07:53:31;;;;;;;5.25;2.05;;;14.30;99.90;;;14.43;99.57;100350.44;5124073;28;20047;-58
2023/03/22 07:56:06;;;;;;;4.80;1.40;;;14.20;99.90;;;14.55;99.82;100343.63;5124027;28;20051;-59
2023/03/22 07:58:38;;;;;;;4.80;1.70;;;14.20;99.90;;;14.85;98.73;100343.06;5125823;28;20046;-58
2023/03/22 08:01:10;;;;;;;4.20;1.33;;;14.40;99.90;;;15.02;97.07;100342.38;5124214;28;20051;-60
2023/03/22 08:03:58;;;;;;;;;;;14.50;99.90;;;15.19;95.77;100344.31;5124990;28;20509;-57
2023/03/22 08:06:39;;;;;;;2.42;1.40;;;14.60;99.90;;;15.29;94.36;100342.63;5123861;28;19923;-58
2023/03/22 08:09:11;;;;;;;5.88;1.75;;;14.70;99.90;;;15.23;92.24;100345.19;5124168;28;20057;-59
2023/03/22 08:11:45;;;;;;;2.20;1.52;;;14.70;99.90;;;14.98;93.00;100349.31;5124411;28;20078;-59
2023/03/22 08:14:17;;;;;;;5.88;1.88;;;14.60;99.90;;;14.78;94.02;100350.88;5125912;28;20137;-59
2023/03/22 08:16:50;;;;;;;4.75;1.75;;;14.50;99.90;;;14.65;94.12;100349.84;5124932;28;20433;-59
2023/03/22 08:19:22;;;;;;;3.47;1.50;;;14.30;99.90;;;14.69;93.34;100338.53;5125690;28;20047;-58
2023/03/22 08:21:54;;;;;;;3.92;1.73;;;14.30;99.90;;;15.26;91.10;100333.81;5124770;28;20487;-58
2023/03/22 08:24:45;;;;;;;4.60;1.25;;;14.60;99.90;;;16.49;86.24;100341.59;5116951;28;20051;-60
2023/03/22 08:27:30;;;;;;;2.17;0.90;;;15.30;99.90;;;18.17;80.32;100336.41;5123646;28;20055;-59
2023/03/22 08:30:04;;;;;;;2.85;0.95;;;16.40;99.90;;;19.55;76.66;100344.38;5123866;28;20050;-59
2023/03/22 08:32:37;;;;;;;3.15;0.90;;;17.50;98.80;;;20.65;72.01;100345.00;5139674;28;20075;-59
2023/03/22 08:35:10;;;;;;;2.40;0.60;;;18.50;95.60;;;21.19;68.33;100345.97;5123516;28;20137;-59
2023/03/22 08:37:42;;;;;;;2.35;0.82;;;19.20;92.00;;;21.46;66.62;100351.78;5116967;28;20370;-59
2023/03/22 08:40:16;;;;;;;2.78;0.90;;;19.60;89.10;;;21.53;66.96;100343.69;5123200;28;20051;-59
2023/03/22 08:42:58;;;;;;;3.35;1.00;;;19.80;88.10;;;21.39;66.31;100338.59;5123212;28;20043;-59
2023/03/22 08:45:30;;;;;;;1.98;0.68;;;19.80;86.40;;;21.35;66.03;100344.84;5122925;28;20142;-58
2023/03/22 08:48:21;;;;;;;2.55;0.60;;;19.80;84.30;;;21.52;64.16;100349.00;5123231;28;20055;-58
2023/03/22 08:51:25;;;;;;;2.17;0.63;;;20.00;81.20;;;21.08;65.02;100361.16;5111468;28;20059;-59
2023/03/22 08:54:17;;;;;;;1.92;0.63;;;19.80;81.00;;;20.77;66.12;100361.59;5123954;28;20535;-59
2023/03/22 08:56:59;;;;;;;3.10;0.70;;;19.60;81.60;;;20.78;64.78;100360.69;5124510;28;20039;-58
2023/03/22 08:59:52;;;;;;;1.85;0.98;;;19.50;80.20;;;20.51;64.67;100371.66;5123190;28;20043;-59
2023/03/22 09:02:43;;;;;;;2.17;0.70;;;19.40;79.40;;;19.83;64.44;100378.56;5123178;28;20489;-59
2023/03/22 09:05:15;;;;;;;0.93;0.63;;;19.00;77.80;;;19.06;66.22;100379.13;5122937;28;20496;-59
2023/03/22 09:07:52;;;;;;;2.58;0.80;;;18.40;79.20;;;18.57;67.61;100378.47;5122973;28;20067;-58
2023/03/22 09:10:35;;;;;;;1.45;0.80;;;18.00;80.60;;;18.08;69.04;100373.38;5122755;28;20555;-58
2023/03/22 09:13:07;;;;;;;0.80;0.68;;;17.60;81.90;;;17.77;71.11;100368.16;5122769;28;20079;-58
2023/03/22 09:15:41;;;;;;;0.82;0.50;;;17.30;84.10;;;17.69;72.10;100375.19;5122118;28;20047;-59
2023/03/22 09:18:22;;;;;;;1.55;0.60;;;17.20;85.80;;;17.54;72.55;100362.91;5122818;28;20051;-59
2023/03/22 09:20:55;;;;;;;2.80;0.98;;;17.00;86.40;;;17.34;72.20;100367.25;5124127;28;20101;-59
2023/03/22 09:23:32;;;;;;;1.45;0.70;;;16.90;86.10;;;17.09;73.22;100351.47;5122853;28;20055;-59
2023/03/22 09:26:08;;;;;;;1.27;0.50;;;16.70;87.40;;;16.95;74.23;100350.56;5122705;28;20551;-59
2023/03/22 09:28:41;;;;;;;2.38;0.93;;;16.50;88.70;;;16.82;75.10;100348.75;5122482;28;20389;-59
2023/03/22 09:31:16;;;;;;;1.88;0.70;;;16.40;89.70;;;16.70;75.90;100362.78;5122558;28;20071;-59
2023/03/22 09:33:48;;;;;;;2.42;0.93;;;16.30;90.30;;;16.70;76.27;100356.66;5138916;28;20039;-58
2023/03/22 09:36:20;;;;;;;1.15;0.60;;;16.30;90.80;;;16.63;76.48;100342.56;5123614;28;20057;-59
2023/03/22 09:38:52;;;;;;;1.58;0.52;;;16.20;90.90;;;16.75;76.33;100339.09;5122538;28;20043;-59
2023/03/22 09:41:36;;;;;;;0.75;0.60;;;16.30;91.10;;;16.94;76.46;100338.25;5122592;28;20055;-59
2023/03/22 09:44:15;;;;;;;1.13;0.60;;;16.40;91.40;;;17.31;76.79;100335.66;5124058;28;20078;-59
2023/03/22 09:46:53;;;;;;;0.80;0.80;;;16.60;91.80;;;17.58;76.07;100338.28;5122360;28;20162;-59
2023/03/22 09:49:29;;;;;;;0.95;0.50;;;16.90;91.50;;;17.71;74.15;100335.63;5123515;28;20055;-59
2023/03/22 09:52:03;;;;;;;1.05;0.50;;;17.10;90.60;;;17.78;74.19;100332.13;5123812;28;20558;-59
2023/03/22 09:54:38;;;;;;;1.75;0.95;;;17.10;90.40;;;17.75;74.29;100335.66;5122658;28;20559;-58
2023/03/22 09:57:19;;;;;;;0.95;0.50;;;17.20;90.30;;;17.63;74.38;100333.88;5121810;28;20052;-59
2023/03/22 09:59:58;;;;;;;1.67;1.10;;;17.10;90.20;;;17.46;74.08;100325.09;5116672;28;20049;-59
2023/03/22 10:02:46;;;;;;;2.75;0.70;;;17.00;89.80;;;17.35;74.23;100325.13;5123317;28;20043;-58
2023/03/22 10:05:29;;;;;;;2.85;0.60;;;16.90;90.00;;;17.30;74.63;100318.97;5123235;28;20075;-58
2023/03/22 10:08:30;;;;;;;1.92;0.50;;;16.80;90.10;;;17.27;74.96;100323.34;5123531;28;20047;-58
2023/03/22 10:11:02;;;;;;;1.40;0.50;;;16.80;90.40;;;17.28;75.04;100333.03;5117942;28;20504;-59
2023/03/22 10:13:41;;;;;;;2.40;0.55;;;16.80;90.40;;;17.27;74.56;100328.63;5121882;28;20142;-58
2023/03/22 10:16:26;;;;;;;2.53;0.55;;;16.80;90.30;;;17.30;74.89;100329.50;5123267;28;20367;-58
2023/03/22 10:19:05;;;;;;;0.77;0.40;;;16.80;90.40;;;17.46;74.29;100325.09;5123068;28;20078;-58
2023/03/22 10:21:38;;;;;;;0.65;0.50;;;16.90;90.20;;;17.68;74.53;100325.97;5123427;28;20039;-58
2023/03/22 10:24:16;;;;;;;1.15;0.45;;;17.00;90.40;;;17.85;72.64;100325.97;5122844;28;20559;-59
2023/03/22 10:26:49;;;;;;;1.42;0.50;;;17.20;88.80;;;17.95;72.61;100318.94;5115838;28;20046;-58
2023/03/22 10:29:27;;;;;;;2.15;0.60;;;17.30;88.70;;;17.90;72.82;100317.16;5123064;28;20058;-58
2023/03/22 10:32:13;;;;;;;2.10;0.50;;;17.30;88.50;;;17.87;72.39;100321.59;5123157;28;20114;-58
2023/03/22 10:34:48;;;;;;;0.63;0.40;;;17.30;87.80;;;17.82;73.07;100320.72;5122920;28;20047;-60
2023/03/22 10:37:24;;;;;;;1.10;0.50;;;17.30;88.50;;;17.84;72.22;100319.81;5123192;28;20046;-59
2023/03/22 10:39:59;;;;;;;2.08;0.77;;;17.30;87.50;;;17.87;71.21;100322.47;5123311;28;20102;-59
2023/03/22 10:42:31;;;;;;;0.75;0.60;;;17.30;86.20;;;17.79;71.66;100318.94;5123204;28;20575;-58
2023/03/22 10:45:08;;;;;;;1.00;0.50;;;17.30;86.50;;;17.71;72.29;100318.09;5122906;28;20047;-59
2023/03/22 10:47:45;;;;;;;1.65;0.70;;;17.20;87.10;;;17.71;72.79;100311.91;5121652;28;20496;-58
2023/03/22 10:50:25;;;;;;;1.05;0.50;;;17.20;87.80;;;17.82;73.48;100307.53;5123029;28;20137;-59
2023/03/22 10:53:03;;;;;;;1.48;0.50;;;17.30;88.60;;;18.04;73.14;100313.59;5116616;28;20039;-58